sensor_id;sensor_type;location;lat;lon;timestamp;P1;durP1;ratioP1;P2;durP2;ratioP2
11767;SDS011;5941;57.652;12.514;2022-08-07T00:01:58;6.63;;;2.53;;
11767;SDS011;5941;57.652;12.514;2022-08-07T00:04:24;10.50;;;2.80;;
11767;SDS011;5941;57.652;12.514;2022-08-07T00:06:50;11.57;;;2.47;;
11767;SDS011;5941;57.652;12.514;2022-08-07T00:09:16;8.53;;;2.87;;
11767;SDS011;5941;57.652;12.514;2022-08-07T00:11:42;8.57;;;2.67;;
11767;SDS011;5941;57.652;12.514;2022-08-07T00:14:08;7.10;;;2.27;;
11767;SDS011;5941;57.652;12.514;2022-08-07T00:16:34;9.13;;;2.30;;
11767;SDS011;5941;57.652;12.514;2022-08-07T00:19:00;10.80;;;3.57;;
11767;SDS011;5941;57.652;12.514;2022-08-07T00:21:26;8.90;;;2.23;;
11767;SDS011;5941;57.652;12.514;2022-08-07T00:23:52;8.83;;;2.53;;
11767;SDS011;5941;57.652;12.514;2022-08-07T00:26:18;10.30;;;2.27;;
11767;SDS011;5941;57.652;12.514;2022-08-07T00:28:44;8.77;;;2.57;;
11767;SDS011;5941;57.652;12.514;2022-08-07T00:31:10;7.10;;;2.83;;
11767;SDS011;5941;57.652;12.514;2022-08-07T00:33:37;8.57;;;2.03;;
11767;SDS011;5941;57.652;12.514;2022-08-07T00:36:03;7.00;;;2.20;;
11767;SDS011;5941;57.652;12.514;2022-08-07T00:38:30;8.93;;;2.70;;
11767;SDS011;5941;57.652;12.514;2022-08-07T00:40:56;7.17;;;2.37;;
11767;SDS011;5941;57.652;12.514;2022-08-07T00:43:22;13.20;;;2.57;;
11767;SDS011;5941;57.652;12.514;2022-08-07T00:45:48;9.30;;;2.67;;
11767;SDS011;5941;57.652;12.514;2022-08-07T00:48:14;6.40;;;2.33;;
11767;SDS011;5941;57.652;12.514;2022-08-07T00:50:40;11.60;;;2.43;;
11767;SDS011;5941;57.652;12.514;2022-08-07T00:53:06;9.33;;;2.27;;
11767;SDS011;5941;57.652;12.514;2022-08-07T00:55:32;7.23;;;2.20;;
11767;SDS011;5941;57.652;12.514;2022-08-07T00:57:58;7.23;;;2.40;;
11767;SDS011;5941;57.652;12.514;2022-08-07T01:00:24;7.37;;;2.23;;
11767;SDS011;5941;57.652;12.514;2022-08-07T01:02:51;9.57;;;2.67;;
11767;SDS011;5941;57.652;12.514;2022-08-07T01:05:17;7.57;;;2.27;;
11767;SDS011;5941;57.652;12.514;2022-08-07T01:07:44;10.03;;;2.30;;
11767;SDS011;5941;57.652;12.514;2022-08-07T01:10:10;8.30;;;2.57;;
11767;SDS011;5941;57.652;12.514;2022-08-07T01:12:37;11.03;;;2.63;;
11767;SDS011;5941;57.652;12.514;2022-08-07T01:15:03;7.27;;;2.23;;
11767;SDS011;5941;57.652;12.514;2022-08-07T01:17:30;7.80;;;2.37;;
11767;SDS011;5941;57.652;12.514;2022-08-07T01:20:10;6.70;;;2.47;;
11767;SDS011;5941;57.652;12.514;2022-08-07T01:22:36;6.97;;;2.27;;
11767;SDS011;5941;57.652;12.514;2022-08-07T01:25:02;7.37;;;2.20;;
11767;SDS011;5941;57.652;12.514;2022-08-07T01:27:29;7.70;;;2.00;;
11767;SDS011;5941;57.652;12.514;2022-08-07T01:29:55;7.30;;;1.93;;
11767;SDS011;5941;57.652;12.514;2022-08-07T01:32:21;8.60;;;2.20;;
11767;SDS011;5941;57.652;12.514;2022-08-07T01:34:47;9.93;;;2.10;;
11767;SDS011;5941;57.652;12.514;2022-08-07T01:37:14;6.53;;;2.10;;
11767;SDS011;5941;57.652;12.514;2022-08-07T01:39:41;6.87;;;2.03;;
11767;SDS011;5941;57.652;12.514;2022-08-07T01:42:08;7.07;;;2.23;;
11767;SDS011;5941;57.652;12.514;2022-08-07T01:44:34;3.80;;;1.80;;
11767;SDS011;5941;57.652;12.514;2022-08-07T01:47:00;4.70;;;1.70;;
11767;SDS011;5941;57.652;12.514;2022-08-07T01:49:26;4.73;;;1.80;;
11767;SDS011;5941;57.652;12.514;2022-08-07T01:51:52;6.57;;;1.90;;
11767;SDS011;5941;57.652;12.514;2022-08-07T01:54:19;5.50;;;1.70;;
11767;SDS011;5941;57.652;12.514;2022-08-07T01:56:53;6.50;;;1.90;;
11767;SDS011;5941;57.652;12.514;2022-08-07T01:59:29;3.47;;;1.53;;
11767;SDS011;5941;57.652;12.514;2022-08-07T02:02:02;3.03;;;1.50;;
11767;SDS011;5941;57.652;12.514;2022-08-07T02:04:34;4.20;;;1.80;;
11767;SDS011;5941;57.652;12.514;2022-08-07T02:07:03;8.27;;;2.20;;
11767;SDS011;5941;57.652;12.514;2022-08-07T02:09:30;5.17;;;2.13;;
11767;SDS011;5941;57.652;12.514;2022-08-07T02:11:57;4.73;;;1.80;;
11767;SDS011;5941;57.652;12.514;2022-08-07T02:14:40;7.10;;;2.10;;
11767;SDS011;5941;57.652;12.514;2022-08-07T02:17:07;6.57;;;1.90;;
11767;SDS011;5941;57.652;12.514;2022-08-07T02:19:34;5.30;;;2.17;;
11767;SDS011;5941;57.652;12.514;2022-08-07T02:22:02;7.43;;;1.90;;
11767;SDS011;5941;57.652;12.514;2022-08-07T02:24:28;6.10;;;1.80;;
11767;SDS011;5941;57.652;12.514;2022-08-07T02:26:54;5.53;;;1.80;;
11767;SDS011;5941;57.652;12.514;2022-08-07T02:29:20;5.50;;;1.87;;
11767;SDS011;5941;57.652;12.514;2022-08-07T02:31:46;5.33;;;1.90;;
11767;SDS011;5941;57.652;12.514;2022-08-07T02:34:12;3.57;;;1.90;;
11767;SDS011;5941;57.652;12.514;2022-08-07T02:36:39;5.57;;;2.07;;
11767;SDS011;5941;57.652;12.514;2022-08-07T02:39:05;8.60;;;2.10;;
11767;SDS011;5941;57.652;12.514;2022-08-07T02:41:32;4.53;;;2.03;;
11767;SDS011;5941;57.652;12.514;2022-08-07T02:43:59;7.90;;;2.10;;
11767;SDS011;5941;57.652;12.514;2022-08-07T02:46:26;8.07;;;2.23;;
11767;SDS011;5941;57.652;12.514;2022-08-07T02:48:52;8.97;;;2.37;;
11767;SDS011;5941;57.652;12.514;2022-08-07T02:51:20;7.30;;;2.30;;
11767;SDS011;5941;57.652;12.514;2022-08-07T02:53:48;5.93;;;2.27;;
11767;SDS011;5941;57.652;12.514;2022-08-07T02:56:18;5.70;;;2.30;;
11767;SDS011;5941;57.652;12.514;2022-08-07T02:58:45;4.83;;;2.33;;
11767;SDS011;5941;57.652;12.514;2022-08-07T03:01:12;4.63;;;2.10;;
11767;SDS011;5941;57.652;12.514;2022-08-07T03:03:38;4.07;;;2.00;;
11767;SDS011;5941;57.652;12.514;2022-08-07T03:06:04;7.03;;;2.30;;
11767;SDS011;5941;57.652;12.514;2022-08-07T03:08:31;4.93;;;2.43;;
11767;SDS011;5941;57.652;12.514;2022-08-07T03:10:58;5.17;;;2.10;;
11767;SDS011;5941;57.652;12.514;2022-08-07T03:13:24;5.40;;;2.60;;
11767;SDS011;5941;57.652;12.514;2022-08-07T03:15:50;6.63;;;2.30;;
11767;SDS011;5941;57.652;12.514;2022-08-07T03:18:16;6.90;;;2.57;;
11767;SDS011;5941;57.652;12.514;2022-08-07T03:20:42;7.27;;;2.57;;
11767;SDS011;5941;57.652;12.514;2022-08-07T03:23:09;5.10;;;2.10;;
11767;SDS011;5941;57.652;12.514;2022-08-07T03:25:39;7.40;;;2.73;;
11767;SDS011;5941;57.652;12.514;2022-08-07T03:28:06;4.10;;;2.30;;
11767;SDS011;5941;57.652;12.514;2022-08-07T03:30:33;5.20;;;2.53;;
11767;SDS011;5941;57.652;12.514;2022-08-07T03:33:02;9.57;;;2.50;;
11767;SDS011;5941;57.652;12.514;2022-08-07T03:35:29;5.23;;;2.30;;
11767;SDS011;5941;57.652;12.514;2022-08-07T03:37:56;9.03;;;2.67;;
11767;SDS011;5941;57.652;12.514;2022-08-07T03:40:25;5.97;;;2.40;;
11767;SDS011;5941;57.652;12.514;2022-08-07T03:42:51;4.73;;;2.40;;
11767;SDS011;5941;57.652;12.514;2022-08-07T03:45:18;5.17;;;2.27;;
11767;SDS011;5941;57.652;12.514;2022-08-07T03:47:44;6.07;;;2.60;;
11767;SDS011;5941;57.652;12.514;2022-08-07T03:50:11;6.33;;;3.00;;
11767;SDS011;5941;57.652;12.514;2022-08-07T03:52:37;7.50;;;2.70;;
11767;SDS011;5941;57.652;12.514;2022-08-07T03:55:03;8.87;;;2.63;;
11767;SDS011;5941;57.652;12.514;2022-08-07T03:57:30;8.03;;;2.43;;
11767;SDS011;5941;57.652;12.514;2022-08-07T03:59:56;5.30;;;2.50;;
11767;SDS011;5941;57.652;12.514;2022-08-07T04:02:23;7.00;;;2.93;;
11767;SDS011;5941;57.652;12.514;2022-08-07T04:04:49;8.30;;;2.60;;
11767;SDS011;5941;57.652;12.514;2022-08-07T04:07:16;5.60;;;2.57;;
11767;SDS011;5941;57.652;12.514;2022-08-07T04:09:42;6.23;;;2.73;;
11767;SDS011;5941;57.652;12.514;2022-08-07T04:12:08;8.17;;;3.03;;
11767;SDS011;5941;57.652;12.514;2022-08-07T04:14:35;7.63;;;2.90;;
11767;SDS011;5941;57.652;12.514;2022-08-07T04:17:01;9.40;;;2.80;;
11767;SDS011;5941;57.652;12.514;2022-08-07T04:19:27;8.60;;;3.13;;
11767;SDS011;5941;57.652;12.514;2022-08-07T04:21:53;7.10;;;2.80;;
11767;SDS011;5941;57.652;12.514;2022-08-07T04:24:19;6.30;;;3.03;;
11767;SDS011;5941;57.652;12.514;2022-08-07T04:26:45;7.47;;;2.90;;
11767;SDS011;5941;57.652;12.514;2022-08-07T04:29:11;5.00;;;2.87;;
11767;SDS011;5941;57.652;12.514;2022-08-07T04:31:37;7.73;;;3.30;;
11767;SDS011;5941;57.652;12.514;2022-08-07T04:34:04;6.27;;;3.00;;
11767;SDS011;5941;57.652;12.514;2022-08-07T04:36:30;6.43;;;2.57;;
11767;SDS011;5941;57.652;12.514;2022-08-07T04:38:57;6.47;;;3.10;;
11767;SDS011;5941;57.652;12.514;2022-08-07T04:41:23;8.53;;;3.00;;
11767;SDS011;5941;57.652;12.514;2022-08-07T04:43:49;6.93;;;2.70;;
11767;SDS011;5941;57.652;12.514;2022-08-07T04:46:17;4.60;;;2.30;;
11767;SDS011;5941;57.652;12.514;2022-08-07T04:51:52;5.40;;;2.93;;
11767;SDS011;5941;57.652;12.514;2022-08-07T04:56:58;7.43;;;2.83;;
11767;SDS011;5941;57.652;12.514;2022-08-07T04:59:32;5.87;;;2.73;;
11767;SDS011;5941;57.652;12.514;2022-08-07T05:02:04;8.73;;;2.90;;
11767;SDS011;5941;57.652;12.514;2022-08-07T05:04:40;5.17;;;2.80;;
11767;SDS011;5941;57.652;12.514;2022-08-07T05:07:20;5.07;;;2.53;;
11767;SDS011;5941;57.652;12.514;2022-08-07T05:09:55;6.43;;;2.70;;
11767;SDS011;5941;57.652;12.514;2022-08-07T05:12:26;10.27;;;2.77;;
11767;SDS011;5941;57.652;12.514;2022-08-07T05:14:53;8.97;;;2.73;;
11767;SDS011;5941;57.652;12.514;2022-08-07T05:17:22;4.80;;;2.53;;
11767;SDS011;5941;57.652;12.514;2022-08-07T05:19:50;6.63;;;2.40;;
11767;SDS011;5941;57.652;12.514;2022-08-07T05:22:17;4.77;;;2.70;;
11767;SDS011;5941;57.652;12.514;2022-08-07T05:24:44;4.50;;;2.43;;
11767;SDS011;5941;57.652;12.514;2022-08-07T05:27:12;3.90;;;2.27;;
11767;SDS011;5941;57.652;12.514;2022-08-07T05:29:38;6.13;;;2.60;;
11767;SDS011;5941;57.652;12.514;2022-08-07T05:32:06;8.17;;;3.07;;
11767;SDS011;5941;57.652;12.514;2022-08-07T05:34:34;6.00;;;2.47;;
11767;SDS011;5941;57.652;12.514;2022-08-07T05:37:01;5.33;;;2.30;;
11767;SDS011;5941;57.652;12.514;2022-08-07T05:39:27;7.40;;;2.63;;
11767;SDS011;5941;57.652;12.514;2022-08-07T05:41:53;7.07;;;2.50;;
11767;SDS011;5941;57.652;12.514;2022-08-07T05:44:20;5.30;;;2.60;;
11767;SDS011;5941;57.652;12.514;2022-08-07T05:46:47;6.57;;;2.60;;
11767;SDS011;5941;57.652;12.514;2022-08-07T05:49:13;6.03;;;2.70;;
11767;SDS011;5941;57.652;12.514;2022-08-07T05:51:43;5.63;;;2.70;;
11767;SDS011;5941;57.652;12.514;2022-08-07T05:54:09;4.27;;;2.30;;
11767;SDS011;5941;57.652;12.514;2022-08-07T05:56:36;6.70;;;3.30;;
11767;SDS011;5941;57.652;12.514;2022-08-07T05:59:04;8.50;;;2.93;;
11767;SDS011;5941;57.652;12.514;2022-08-07T06:01:33;6.03;;;2.67;;
11767;SDS011;5941;57.652;12.514;2022-08-07T06:04:00;7.47;;;2.70;;
11767;SDS011;5941;57.652;12.514;2022-08-07T06:06:26;4.97;;;3.03;;
11767;SDS011;5941;57.652;12.514;2022-08-07T06:08:52;5.20;;;2.50;;
11767;SDS011;5941;57.652;12.514;2022-08-07T06:11:18;7.93;;;3.10;;
11767;SDS011;5941;57.652;12.514;2022-08-07T06:13:44;6.53;;;2.57;;
11767;SDS011;5941;57.652;12.514;2022-08-07T06:16:10;3.63;;;2.30;;
11767;SDS011;5941;57.652;12.514;2022-08-07T06:18:37;6.30;;;2.60;;
11767;SDS011;5941;57.652;12.514;2022-08-07T06:21:04;5.17;;;2.50;;
11767;SDS011;5941;57.652;12.514;2022-08-07T06:23:31;5.70;;;2.77;;
11767;SDS011;5941;57.652;12.514;2022-08-07T06:25:58;8.30;;;2.70;;
11767;SDS011;5941;57.652;12.514;2022-08-07T06:28:24;5.30;;;2.60;;
11767;SDS011;5941;57.652;12.514;2022-08-07T06:30:50;5.80;;;2.70;;
11767;SDS011;5941;57.652;12.514;2022-08-07T06:33:17;6.50;;;2.47;;
11767;SDS011;5941;57.652;12.514;2022-08-07T06:35:43;6.57;;;2.63;;
11767;SDS011;5941;57.652;12.514;2022-08-07T06:38:09;4.83;;;2.60;;
11767;SDS011;5941;57.652;12.514;2022-08-07T06:40:42;5.17;;;2.40;;
11767;SDS011;5941;57.652;12.514;2022-08-07T06:43:10;7.47;;;2.77;;
11767;SDS011;5941;57.652;12.514;2022-08-07T06:45:37;7.57;;;3.03;;
11767;SDS011;5941;57.652;12.514;2022-08-07T06:48:03;3.70;;;2.77;;
11767;SDS011;5941;57.652;12.514;2022-08-07T06:50:30;6.40;;;2.83;;
11767;SDS011;5941;57.652;12.514;2022-08-07T06:52:57;5.23;;;2.70;;
11767;SDS011;5941;57.652;12.514;2022-08-07T06:55:28;5.20;;;2.97;;
11767;SDS011;5941;57.652;12.514;2022-08-07T06:57:57;6.33;;;2.57;;
11767;SDS011;5941;57.652;12.514;2022-08-07T07:00:23;6.73;;;2.77;;
11767;SDS011;5941;57.652;12.514;2022-08-07T07:02:50;6.03;;;2.67;;
11767;SDS011;5941;57.652;12.514;2022-08-07T07:05:16;2.53;;;2.20;;
11767;SDS011;5941;57.652;12.514;2022-08-07T07:07:44;6.40;;;2.80;;
11767;SDS011;5941;57.652;12.514;2022-08-07T07:10:11;7.27;;;2.73;;
11767;SDS011;5941;57.652;12.514;2022-08-07T07:13:00;7.17;;;2.57;;
11767;SDS011;5941;57.652;12.514;2022-08-07T07:15:26;5.10;;;3.10;;
11767;SDS011;5941;57.652;12.514;2022-08-07T07:20:32;2.83;;;2.33;;
11767;SDS011;5941;57.652;12.514;2022-08-07T07:22:59;3.40;;;2.37;;
11767;SDS011;5941;57.652;12.514;2022-08-07T07:25:25;3.43;;;2.40;;
11767;SDS011;5941;57.652;12.514;2022-08-07T07:30:18;5.30;;;2.30;;
11767;SDS011;5941;57.652;12.514;2022-08-07T07:32:46;3.27;;;2.13;;
11767;SDS011;5941;57.652;12.514;2022-08-07T07:35:13;6.80;;;2.40;;
11767;SDS011;5941;57.652;12.514;2022-08-07T07:37:40;3.50;;;2.30;;
11767;SDS011;5941;57.652;12.514;2022-08-07T07:40:09;4.70;;;2.40;;
11767;SDS011;5941;57.652;12.514;2022-08-07T07:42:37;3.90;;;2.40;;
11767;SDS011;5941;57.652;12.514;2022-08-07T07:45:03;6.83;;;2.90;;
11767;SDS011;5941;57.652;12.514;2022-08-07T07:47:31;3.73;;;2.20;;
11767;SDS011;5941;57.652;12.514;2022-08-07T07:49:57;2.80;;;2.40;;
11767;SDS011;5941;57.652;12.514;2022-08-07T07:52:24;4.87;;;2.50;;
11767;SDS011;5941;57.652;12.514;2022-08-07T07:54:51;4.27;;;2.50;;
11767;SDS011;5941;57.652;12.514;2022-08-07T07:57:19;7.23;;;2.60;;
11767;SDS011;5941;57.652;12.514;2022-08-07T07:59:46;4.13;;;2.57;;
11767;SDS011;5941;57.652;12.514;2022-08-07T08:02:13;5.47;;;2.90;;
11767;SDS011;5941;57.652;12.514;2022-08-07T08:04:39;7.37;;;3.40;;
11767;SDS011;5941;57.652;12.514;2022-08-07T08:07:07;4.87;;;3.20;;
11767;SDS011;5941;57.652;12.514;2022-08-07T08:09:33;6.33;;;3.30;;
11767;SDS011;5941;57.652;12.514;2022-08-07T08:11:59;3.90;;;2.97;;
11767;SDS011;5941;57.652;12.514;2022-08-07T08:14:27;5.53;;;3.70;;
11767;SDS011;5941;57.652;12.514;2022-08-07T08:16:53;6.43;;;4.17;;
11767;SDS011;5941;57.652;12.514;2022-08-07T08:19:23;6.57;;;4.17;;
11767;SDS011;5941;57.652;12.514;2022-08-07T08:21:50;5.47;;;4.13;;
11767;SDS011;5941;57.652;12.514;2022-08-07T08:24:36;8.13;;;4.13;;
11767;SDS011;5941;57.652;12.514;2022-08-07T08:27:21;7.10;;;4.50;;
11767;SDS011;5941;57.652;12.514;2022-08-07T08:29:51;8.33;;;5.60;;
11767;SDS011;5941;57.652;12.514;2022-08-07T08:32:19;5.53;;;4.97;;
11767;SDS011;5941;57.652;12.514;2022-08-07T08:34:45;9.77;;;5.53;;
11767;SDS011;5941;57.652;12.514;2022-08-07T08:37:12;6.63;;;5.40;;
11767;SDS011;5941;57.652;12.514;2022-08-07T08:39:39;6.43;;;5.17;;
11767;SDS011;5941;57.652;12.514;2022-08-07T08:42:20;8.67;;;5.17;;
11767;SDS011;5941;57.652;12.514;2022-08-07T08:47:26;7.50;;;5.33;;
11767;SDS011;5941;57.652;12.514;2022-08-07T08:52:36;6.83;;;5.17;;
11767;SDS011;5941;57.652;12.514;2022-08-07T08:55:09;8.53;;;5.83;;
11767;SDS011;5941;57.652;12.514;2022-08-07T08:57:43;5.70;;;4.83;;
11767;SDS011;5941;57.652;12.514;2022-08-07T09:00:10;6.93;;;5.27;;
11767;SDS011;5941;57.652;12.514;2022-08-07T09:02:46;7.77;;;5.90;;
11767;SDS011;5941;57.652;12.514;2022-08-07T09:10:20;8.87;;;6.30;;
11767;SDS011;5941;57.652;12.514;2022-08-07T09:15:50;6.60;;;5.80;;
11767;SDS011;5941;57.652;12.514;2022-08-07T09:26:15;7.97;;;6.40;;
11767;SDS011;5941;57.652;12.514;2022-08-07T09:28:43;8.30;;;6.50;;
11767;SDS011;5941;57.652;12.514;2022-08-07T09:31:35;9.43;;;6.27;;
11767;SDS011;5941;57.652;12.514;2022-08-07T09:34:07;8.60;;;6.20;;
11767;SDS011;5941;57.652;12.514;2022-08-07T09:36:38;8.13;;;6.13;;
11767;SDS011;5941;57.652;12.514;2022-08-07T09:49:58;10.77;;;7.30;;
11767;SDS011;5941;57.652;12.514;2022-08-07T09:55:03;7.83;;;7.03;;
11767;SDS011;5941;57.652;12.514;2022-08-07T10:00:09;8.50;;;7.70;;
11767;SDS011;5941;57.652;12.514;2022-08-07T10:08:05;8.23;;;7.07;;
11767;SDS011;5941;57.652;12.514;2022-08-07T10:10:47;9.23;;;7.30;;
11767;SDS011;5941;57.652;12.514;2022-08-07T10:21:01;9.40;;;7.20;;
11767;SDS011;5941;57.652;12.514;2022-08-07T10:38:57;8.63;;;7.50;;
11767;SDS011;5941;57.652;12.514;2022-08-07T10:46:23;11.67;;;7.53;;
11767;SDS011;5941;57.652;12.514;2022-08-07T11:00:03;8.30;;;7.50;;
11767;SDS011;5941;57.652;12.514;2022-08-07T11:07:52;7.20;;;6.50;;
11767;SDS011;5941;57.652;12.514;2022-08-07T11:09:53;7.90;;;6.77;;
11767;SDS011;5941;57.652;12.514;2022-08-07T11:12:22;7.00;;;5.97;;
11767;SDS011;5941;57.652;12.514;2022-08-07T11:14:51;6.87;;;6.23;;
11767;SDS011;5941;57.652;12.514;2022-08-07T11:17:26;6.00;;;5.40;;
11767;SDS011;5941;57.652;12.514;2022-08-07T11:19:58;6.90;;;6.27;;
11767;SDS011;5941;57.652;12.514;2022-08-07T11:23:00;7.00;;;6.27;;
11767;SDS011;5941;57.652;12.514;2022-08-07T11:30:25;7.07;;;6.03;;
11767;SDS011;5941;57.652;12.514;2022-08-07T11:32:55;6.53;;;5.90;;
11767;SDS011;5941;57.652;12.514;2022-08-07T11:35:24;6.38;;;5.75;;
11767;SDS011;5941;57.652;12.514;2022-08-07T11:37:55;6.30;;;5.72;;
11767;SDS011;5941;57.652;12.514;2022-08-07T11:42:57;7.45;;;6.00;;
11767;SDS011;5941;57.652;12.514;2022-08-07T11:48:20;6.57;;;5.57;;
11767;SDS011;5941;57.652;12.514;2022-08-07T11:53:38;7.65;;;6.65;;
11767;SDS011;5941;57.652;12.514;2022-08-07T11:58:59;7.38;;;6.60;;
11767;SDS011;5941;57.652;12.514;2022-08-07T12:09:32;8.27;;;7.45;;
11767;SDS011;5941;57.652;12.514;2022-08-07T12:11:56;8.55;;;7.63;;
11767;SDS011;5941;57.652;12.514;2022-08-07T12:14:24;8.55;;;7.75;;
11767;SDS011;5941;57.652;12.514;2022-08-07T12:16:57;10.10;;;8.35;;
11767;SDS011;5941;57.652;12.514;2022-08-07T12:19:32;9.67;;;8.70;;
11767;SDS011;5941;57.652;12.514;2022-08-07T12:27:32;10.05;;;7.40;;
11767;SDS011;5941;57.652;12.514;2022-08-07T12:30:06;7.75;;;6.78;;
11767;SDS011;5941;57.652;12.514;2022-08-07T12:35:18;9.77;;;8.20;;
11767;SDS011;5941;57.652;12.514;2022-08-07T12:37:45;9.00;;;8.10;;
11767;SDS011;5941;57.652;12.514;2022-08-07T12:40:15;8.93;;;8.03;;
11767;SDS011;5941;57.652;12.514;2022-08-07T12:42:43;10.80;;;8.30;;
11767;SDS011;5941;57.652;12.514;2022-08-07T12:45:11;10.40;;;8.27;;
11767;SDS011;5941;57.652;12.514;2022-08-07T12:47:51;10.73;;;8.77;;
11767;SDS011;5941;57.652;12.514;2022-08-07T12:50:34;9.77;;;8.73;;
11767;SDS011;5941;57.652;12.514;2022-08-07T12:53:12;11.10;;;8.43;;
11767;SDS011;5941;57.652;12.514;2022-08-07T12:55:41;9.15;;;8.23;;
11767;SDS011;5941;57.652;12.514;2022-08-07T12:58:09;9.63;;;8.20;;
11767;SDS011;5941;57.652;12.514;2022-08-07T13:00:51;8.80;;;7.90;;
11767;SDS011;5941;57.652;12.514;2022-08-07T13:09:00;10.60;;;7.40;;
11767;SDS011;5941;57.652;12.514;2022-08-07T13:11:36;9.27;;;7.97;;
11767;SDS011;5941;57.652;12.514;2022-08-07T13:22:14;9.60;;;8.07;;
11767;SDS011;5941;57.652;12.514;2022-08-07T13:27:32;9.53;;;8.20;;
11767;SDS011;5941;57.652;12.514;2022-08-07T13:30:02;9.77;;;8.20;;
11767;SDS011;5941;57.652;12.514;2022-08-07T13:32:41;8.97;;;7.73;;
11767;SDS011;5941;57.652;12.514;2022-08-07T13:35:19;8.83;;;7.50;;
11767;SDS011;5941;57.652;12.514;2022-08-07T13:37:53;10.53;;;8.10;;
11767;SDS011;5941;57.652;12.514;2022-08-07T13:40:26;10.43;;;7.63;;
11767;SDS011;5941;57.652;12.514;2022-08-07T13:42:55;8.63;;;7.77;;
11767;SDS011;5941;57.652;12.514;2022-08-07T13:45:22;7.90;;;7.10;;
11767;SDS011;5941;57.652;12.514;2022-08-07T13:47:50;9.53;;;7.23;;
11767;SDS011;5941;57.652;12.514;2022-08-07T13:50:18;7.83;;;7.03;;
11767;SDS011;5941;57.652;12.514;2022-08-07T13:52:44;6.80;;;6.20;;
11767;SDS011;5941;57.652;12.514;2022-08-07T13:55:13;7.13;;;6.53;;
11767;SDS011;5941;57.652;12.514;2022-08-07T13:57:40;9.97;;;6.37;;
11767;SDS011;5941;57.652;12.514;2022-08-07T14:00:07;8.13;;;6.30;;
11767;SDS011;5941;57.652;12.514;2022-08-07T14:02:34;6.53;;;5.70;;
11767;SDS011;5941;57.652;12.514;2022-08-07T14:05:02;6.57;;;5.87;;
11767;SDS011;5941;57.652;12.514;2022-08-07T14:07:29;7.33;;;5.67;;
11767;SDS011;5941;57.652;12.514;2022-08-07T14:09:56;6.63;;;5.97;;
11767;SDS011;5941;57.652;12.514;2022-08-07T14:12:24;6.93;;;6.23;;
11767;SDS011;5941;57.652;12.514;2022-08-07T14:14:52;8.67;;;6.57;;
11767;SDS011;5941;57.652;12.514;2022-08-07T14:17:20;7.00;;;6.30;;
11767;SDS011;5941;57.652;12.514;2022-08-07T14:19:48;7.83;;;6.73;;
11767;SDS011;5941;57.652;12.514;2022-08-07T14:22:16;8.87;;;6.30;;
11767;SDS011;5941;57.652;12.514;2022-08-07T14:24:46;7.47;;;6.63;;
11767;SDS011;5941;57.652;12.514;2022-08-07T14:27:13;7.13;;;6.43;;
11767;SDS011;5941;57.652;12.514;2022-08-07T14:29:41;8.20;;;7.20;;
11767;SDS011;5941;57.652;12.514;2022-08-07T14:32:08;8.17;;;7.37;;
11767;SDS011;5941;57.652;12.514;2022-08-07T14:34:38;8.70;;;6.77;;
11767;SDS011;5941;57.652;12.514;2022-08-07T14:37:06;9.00;;;6.63;;
11767;SDS011;5941;57.652;12.514;2022-08-07T14:39:35;7.73;;;6.43;;
11767;SDS011;5941;57.652;12.514;2022-08-07T14:42:02;7.33;;;6.27;;
11767;SDS011;5941;57.652;12.514;2022-08-07T14:44:28;6.77;;;6.07;;
11767;SDS011;5941;57.652;12.514;2022-08-07T14:46:55;7.57;;;6.23;;
11767;SDS011;5941;57.652;12.514;2022-08-07T14:49:23;7.03;;;6.33;;
11767;SDS011;5941;57.652;12.514;2022-08-07T14:51:56;6.60;;;5.90;;
11767;SDS011;5941;57.652;12.514;2022-08-07T14:54:23;7.00;;;6.30;;
11767;SDS011;5941;57.652;12.514;2022-08-07T14:56:53;6.90;;;6.13;;
11767;SDS011;5941;57.652;12.514;2022-08-07T14:59:20;8.57;;;7.00;;
11767;SDS011;5941;57.652;12.514;2022-08-07T15:01:47;7.67;;;6.53;;
11767;SDS011;5941;57.652;12.514;2022-08-07T15:04:13;6.97;;;6.33;;
11767;SDS011;5941;57.652;12.514;2022-08-07T15:06:41;8.43;;;6.63;;
11767;SDS011;5941;57.652;12.514;2022-08-07T15:09:10;7.93;;;6.30;;
11767;SDS011;5941;57.652;12.514;2022-08-07T15:11:46;7.17;;;6.40;;
11767;SDS011;5941;57.652;12.514;2022-08-07T15:14:15;7.23;;;6.50;;
11767;SDS011;5941;57.652;12.514;2022-08-07T15:16:47;8.00;;;6.40;;
11767;SDS011;5941;57.652;12.514;2022-08-07T15:19:17;7.37;;;6.67;;
11767;SDS011;5941;57.652;12.514;2022-08-07T15:21:46;6.60;;;6.00;;
11767;SDS011;5941;57.652;12.514;2022-08-07T15:24:16;6.73;;;5.93;;
11767;SDS011;5941;57.652;12.514;2022-08-07T15:26:43;7.53;;;6.73;;
11767;SDS011;5941;57.652;12.514;2022-08-07T15:29:12;8.13;;;6.63;;
11767;SDS011;5941;57.652;12.514;2022-08-07T15:31:39;6.90;;;6.27;;
11767;SDS011;5941;57.652;12.514;2022-08-07T15:34:05;7.43;;;6.63;;
11767;SDS011;5941;57.652;12.514;2022-08-07T15:36:32;7.87;;;6.27;;
11767;SDS011;5941;57.652;12.514;2022-08-07T15:39:03;7.50;;;6.63;;
11767;SDS011;5941;57.652;12.514;2022-08-07T15:41:29;7.00;;;6.27;;
11767;SDS011;5941;57.652;12.514;2022-08-07T15:44:03;7.83;;;6.60;;
11767;SDS011;5941;57.652;12.514;2022-08-07T15:46:31;8.03;;;6.20;;
11767;SDS011;5941;57.652;12.514;2022-08-07T15:48:58;8.27;;;6.60;;
11767;SDS011;5941;57.652;12.514;2022-08-07T15:51:25;7.03;;;6.30;;
11767;SDS011;5941;57.652;12.514;2022-08-07T15:53:56;6.30;;;5.60;;
11767;SDS011;5941;57.652;12.514;2022-08-07T15:56:55;6.40;;;5.70;;
11767;SDS011;5941;57.652;12.514;2022-08-07T15:59:14;7.20;;;5.50;;
11767;SDS011;5941;57.652;12.514;2022-08-07T16:01:46;6.30;;;5.10;;
11767;SDS011;5941;57.652;12.514;2022-08-07T16:04:13;5.93;;;5.17;;
11767;SDS011;5941;57.652;12.514;2022-08-07T16:09:12;6.37;;;5.77;;
11767;SDS011;5941;57.652;12.514;2022-08-07T16:20:02;6.87;;;5.40;;
11767;SDS011;5941;57.652;12.514;2022-08-07T16:25:24;5.80;;;4.97;;
11767;SDS011;5941;57.652;12.514;2022-08-07T16:27:58;6.07;;;5.47;;
11767;SDS011;5941;57.652;12.514;2022-08-07T16:30:27;5.53;;;5.03;;
11767;SDS011;5941;57.652;12.514;2022-08-07T16:33:10;6.20;;;5.57;;
11767;SDS011;5941;57.652;12.514;2022-08-07T16:35:40;6.10;;;5.50;;
11767;SDS011;5941;57.652;12.514;2022-08-07T16:45:53;6.17;;;5.57;;
11767;SDS011;5941;57.652;12.514;2022-08-07T16:50:56;5.70;;;5.20;;
11767;SDS011;5941;57.652;12.514;2022-08-07T16:55:51;5.77;;;5.10;;
11767;SDS011;5941;57.652;12.514;2022-08-07T17:01:15;6.70;;;5.07;;
11767;SDS011;5941;57.652;12.514;2022-08-07T17:11:56;4.80;;;4.40;;
11767;SDS011;5941;57.652;12.514;2022-08-07T17:16:59;6.73;;;5.17;;
11767;SDS011;5941;57.652;12.514;2022-08-07T17:19:33;6.40;;;5.47;;
11767;SDS011;5941;57.652;12.514;2022-08-07T17:22:17;5.27;;;4.50;;
11767;SDS011;5941;57.652;12.514;2022-08-07T17:27:30;5.57;;;4.87;;
11767;SDS011;5941;57.652;12.514;2022-08-07T17:30:02;5.67;;;4.80;;
11767;SDS011;5941;57.652;12.514;2022-08-07T17:32:40;6.40;;;4.97;;
11767;SDS011;5941;57.652;12.514;2022-08-07T17:35:11;6.27;;;5.10;;
11767;SDS011;5941;57.652;12.514;2022-08-07T17:40:27;5.30;;;4.80;;
11767;SDS011;5941;57.652;12.514;2022-08-07T17:42:54;6.27;;;4.90;;
11767;SDS011;5941;57.652;12.514;2022-08-07T17:45:26;6.93;;;5.10;;
11767;SDS011;5941;57.652;12.514;2022-08-07T17:48:10;6.27;;;5.40;;
11767;SDS011;5941;57.652;12.514;2022-08-07T17:56:08;5.83;;;4.70;;
11767;SDS011;5941;57.652;12.514;2022-08-07T17:58:43;5.30;;;4.77;;
11767;SDS011;5941;57.652;12.514;2022-08-07T18:01:13;5.47;;;4.77;;
11767;SDS011;5941;57.652;12.514;2022-08-07T18:03:45;7.03;;;4.97;;
11767;SDS011;5941;57.652;12.514;2022-08-07T18:06:13;4.93;;;4.30;;
11767;SDS011;5941;57.652;12.514;2022-08-07T18:11:17;6.00;;;4.17;;
11767;SDS011;5941;57.652;12.514;2022-08-07T18:14:08;5.67;;;4.23;;
11767;SDS011;5941;57.652;12.514;2022-08-07T18:21:41;5.73;;;4.47;;
11767;SDS011;5941;57.652;12.514;2022-08-07T18:24:30;4.17;;;3.77;;